MMPBMMMX

Guest
Details From MMPB - Hermanos Serdan Intl
To MMMX - Licenciado Benito Juarez Intl
Flight Number -
Tags Generated
Created
Modified
Stats Distance 43 nm / 80 km
Max Altitude 0 ft / 0 m
Waypoints 2
Social Downloads 0
Likes 0
Share VATSIM

Download

Looking for another format? Having issues loading an existing format? Contact us
Advertisement - Login to hide

Notes

Generated

Route

MMPB MMMX

ID Type Via Altitude Latitude Longitude Leg Dist Tot Dist Heading (true) Name
O MMPB APT - 0 ft / 0 m 19.17449˚ -98.37203˚ - 0 nm - -
O MMMX APT - 0 ft / 0 m 19.42701˚ -99.08585˚ 43 nm 43 nm 291° / 290° -

Altitude Profile

Advertisement - Login to hide

MMPB

Details ICAO MMPB (PBC)
Name Hermanos Serdan Intl
Region Mexico
Timezone America/Mexico_City (UTC-6.0)
Stats Elevation 7,361 ft / 2,244 m (AMSL)
Location 19.158144° -98.371446°
Runways 1
Magnetic Variation 4.366° E

METAR

MMPB 102347Z 08012KT 11SM SKC 14/M12 A3040 RMK HZY CI

Decode

TAF

Not found

Departure Runways

ID Width Length Bearing (true) Bearing (mag) Surface Threshold Offset Overrun Length
17 148 ft / 45 m 11,933 ft / 3,637 m 178.06° 173.69° Asphalt 0 ft / 0 m 185 ft / 56 m
35 148 ft / 45 m 11,933 ft / 3,637 m 358.06° 353.69° Asphalt 0 ft / 0 m 232 ft / 71 m

MMMX

Details ICAO MMMX (MEX)
Name Licenciado Benito Juarez Intl
Region Mexico
Timezone America/Mexico_City (UTC-6.0)
Stats Elevation 7,316 ft / 2,230 m (AMSL)
Location 19.436308° -99.072104°
Runways 2
Magnetic Variation 4.650° E

METAR

MMMX 102348Z 32007KT 8SM SCT200 16/M12 A3041 NOSIG RMK SLP220 52003 935 8/002 HZY

Decode

TAF

TAF MMMX 102305Z 1100/1206 33008KT 6SM HZ SCT200 TX18/1121Z TN02/1112Z FM110400 00000KT 6SM HZ BKN200 FM111800 03010KT 6SM HZ SCT100 BKN200 FM120400 03005KT 6SM HZ SCT100 BKN20

Decode

Destination Runways

ID Width Length Bearing (true) Bearing (mag) Surface Threshold Offset Overrun Length
05L 148 ft / 45 m 12,951 ft / 3,948 m 59.25° 54.60° Asphalt 1,033 ft / 315 m 0 ft / 0 m
05R 148 ft / 45 m 12,800 ft / 3,902 m 59.26° 54.61° Asphalt 1,493 ft / 455 m 0 ft / 0 m
23L 148 ft / 45 m 12,800 ft / 3,902 m 239.28° 234.63° Asphalt 0 ft / 0 m 200 ft / 61 m
23R 148 ft / 45 m 12,951 ft / 3,948 m 239.27° 234.62° Asphalt 1,640 ft / 500 m 0 ft / 0 m

Approach Navaids

Runway Type Ident Frequency Range Bearing (true) Bearing (mag) Slope Elevation
05R Localiser IMWX 109.10 MHz 18 nm / 33 km 59.26° 54.61° - 7,316 ft / 2,230 m (AMSL)
05R Glidescope IMWX 109.10 MHz 10 nm / 19 km 59.27° 54.62° 3.00° 7,316 ft / 2,230 m (AMSL)
05R DME IMWX 109.10 MHz 18 nm / 33 km - - - 7,316 ft / 2,230 m (AMSL)
23L Localiser IMEX 109.70 MHz 18 nm / 33 km 239.27° 234.62° - 7,316 ft / 2,230 m (AMSL)
23L Glidescope IMEX 109.70 MHz 10 nm / 19 km 239.27° 234.62° 3.00° 7,316 ft / 2,230 m (AMSL)
23L DME IMEX 109.70 MHz 18 nm / 33 km - - - 7,316 ft / 2,230 m (AMSL)

Popular Alternatives